»·PEaware :: N8672U KSNA-KCRQ

N8672U :: KSNA-KCRQ

FLIGHT INFORMATION

Flight Status: Arrived
Operator: Privately registered:
United States
More flights under this callsign
Pilot: Moritz O. (15865)
Aircraft: PIPER PA-28 CHEROKEE ARCHER
(PA28)
More flights by this aircraft type
Origin: KSNA John Wayne-Orange Co
United States
Destination: KCRQ McClellan-Palomar
United States
More flights between these airports :: More routes between these airports
Route: +V23 OCN
File this flight plan on PilotEdge
Remarks: I2 Rating
Altitude:
(Current/Filed)
5,000ft
Speed:
(Current/Filed)
145kts
Departed: 01-Jul-17 09:33 AM
Arrived: 01-Jul-17 10:14 AM
Distance/Time
Traveled:
44nm/0:41
Distance/Time
To Go:
Arrived

Flight Plot

Page will automatically refresh every two minutes.


Map Options




Map Legend


Flown Route
Filed Route
Departure Airport
Arrival Airport
Navaid (VOR, NDB)
Fix

Horizontal Profiles

Position Reports

Time Latitude Longitude Heading Altitude Ground
Speed
01-Jul-17 09:25 33.676262 -117.870861 206 59ft 0kts
01-Jul-17 09:26 33.676262 -117.870861 206 59ft 0kts
01-Jul-17 09:27 33.676262 -117.870861 205 59ft 0kts
01-Jul-17 09:28 33.676262 -117.870861 205 59ft 0kts
01-Jul-17 09:29 33.676218 -117.870886 204 59ft 4kts
01-Jul-17 09:30 33.677777 -117.869022 26 59ft 17kts
01-Jul-17 09:31 33.681221 -117.866376 122 59ft 0kts
01-Jul-17 09:32 33.681221 -117.866376 122 59ft 0kts
01-Jul-17 09:33 33.681221 -117.866376 122 59ft 0kts
01-Jul-17 09:34 33.681221 -117.866375 122 59ft 0kts
01-Jul-17 09:35 33.681221 -117.866375 122 59ft 0kts
01-Jul-17 09:36 33.678739 -117.866892 206 59ft 60kts
01-Jul-17 09:37 33.657826 -117.872383 186 851ft 89kts
01-Jul-17 09:38 33.631628 -117.875669 186 1681ft 100kts
01-Jul-17 09:39 33.604210 -117.879115 186 2465ft 104kts
01-Jul-17 09:40 33.579292 -117.882268 186 3157ft 104kts
01-Jul-17 09:41 33.556575 -117.885214 186 3790ft 102kts
01-Jul-17 09:42 33.532684 -117.888413 186 4472ft 98kts
01-Jul-17 09:43 33.507472 -117.885319 125 4963ft 119kts
01-Jul-17 09:44 33.494857 -117.845531 111 4958ft 145kts
01-Jul-17 09:45 33.481468 -117.801098 111 4955ft 150kts
01-Jul-17 09:46 33.468208 -117.757170 111 4958ft 156kts
01-Jul-17 09:47 33.454512 -117.712510 111 4958ft 160kts
01-Jul-17 09:48 33.439808 -117.665887 111 4960ft 162kts
01-Jul-17 09:49 33.425059 -117.621183 111 4962ft 161kts
01-Jul-17 09:50 33.409800 -117.576929 111 4963ft 159kts
01-Jul-17 09:51 33.394217 -117.531625 111 4963ft 159kts
01-Jul-17 09:52 33.377578 -117.488227 138 4952ft 158kts
01-Jul-17 09:53 33.340142 -117.469377 156 4963ft 158kts
01-Jul-17 09:54 33.303482 -117.450451 155 4995ft 157kts
01-Jul-17 09:55 33.266801 -117.431373 155 4999ft 158kts
01-Jul-17 09:56 33.237510 -117.403925 88 4990ft 155kts
01-Jul-17 09:57 33.242394 -117.358768 81 4997ft 155kts
01-Jul-17 09:58 33.247607 -117.314939 81 4997ft 155kts
01-Jul-17 09:59 33.253002 -117.270194 81 4996ft 154kts
01-Jul-17 10:00 33.258376 -117.226444 81 4994ft 154kts
01-Jul-17 10:01 33.264133 -117.180687 81 4993ft 154kts
01-Jul-17 10:02 33.270010 -117.135368 81 4991ft 153kts
01-Jul-17 10:03 33.275961 -117.090519 81 4992ft 153kts
01-Jul-17 10:04 33.281861 -117.044596 81 4996ft 153kts
01-Jul-17 10:05 33.287481 -116.998701 81 4999ft 153kts
01-Jul-17 10:06 33.278150 -116.961615 168 4993ft 159kts
01-Jul-17 10:07 33.239979 -116.970134 191 5002ft 161kts
01-Jul-17 10:08 33.203759 -116.982801 218 4999ft 162kts
01-Jul-17 10:09 33.173514 -117.015248 221 4999ft 162kts
01-Jul-17 10:10 33.161131 -117.054481 271 4371ft 163kts
01-Jul-17 10:11 33.157979 -117.094072 260 3539ft 155kts
01-Jul-17 10:12 33.152606 -117.129421 259 2683ft 139kts
01-Jul-17 10:13 33.145977 -117.170236 259 2136ft 130kts
01-Jul-17 10:14 33.139075 -117.213269 259 1411ft 134kts
01-Jul-17 10:15 33.133380 -117.248352 259 780ft 91kts
01-Jul-17 10:16 33.129077 -117.275173 259 308ft 60kts
01-Jul-17 10:17 33.128988 -117.280240 305 308ft 3kts
01-Jul-17 10:18 33.129033 -117.280327 294 308ft 0kts
01-Jul-17 10:19 33.129033 -117.280327 294 308ft 0kts
01-Jul-17 10:20 33.129033 -117.280327 294 308ft 0kts

Navigation Log

Ident Type
Flight plan parsing failed, navigation log unavailable